Time;durP1;ratioP1;P1;durP2;ratioP2;P2;SDS_P1;SDS_P2;PMS_P1;PMS_P2;Temp;Humidity;BMP_temperature;BMP_pressure;BME280_temperature;BME280_humidity;BME280_pressure;Samples;Min_cycle;Max_cycle;Signal;HPM_P1;HPM_P2
2023/12/03 00:00:25;;;;;;;25.17;13.55;;;;;;;-1.94;62.26;99549.69;5036238;28;20116;-51
2023/12/03 00:02:51;;;;;;;27.60;13.90;;;;;;;-1.99;62.73;99534.09;5051389;28;20025;-56
2023/12/03 00:05:16;;;;;;;22.83;13.20;;;;;;;-1.97;62.32;99534.88;5055951;28;20068;-56
2023/12/03 00:07:43;;;;;;;21.92;12.73;;;;;;;-1.93;62.58;99539.16;5047494;28;20025;-51
2023/12/03 00:10:09;;;;;;;22.23;12.48;;;;;;;-1.97;62.51;99520.94;5036419;28;20033;-54
2023/12/03 00:12:36;;;;;;;22.58;12.55;;;;;;;-1.85;62.14;99533.63;5036299;28;20368;-56
2023/12/03 00:15:02;;;;;;;23.40;12.65;;;;;;;-1.89;62.36;99525.00;5035784;28;20029;-54
2023/12/03 00:17:31;;;;;;;21.63;12.18;;;;;;;-1.86;62.08;99516.16;5049876;28;20443;-56
2023/12/03 00:19:57;;;;;;;26.05;13.38;;;;;;;-1.80;62.31;99509.84;5055775;28;20111;-49
2023/12/03 00:22:22;;;;;;;25.63;14.38;;;;;;;-1.86;62.14;99510.91;5056015;28;20033;-48
2023/12/03 00:24:48;;;;;;;26.85;14.80;;;;;;;-2.10;62.36;99481.13;5055643;28;20032;-50
2023/12/03 00:27:14;;;;;;;25.48;14.80;;;;;;;-1.93;62.36;99512.91;5055179;28;20036;-50
2023/12/03 00:29:40;;;;;;;28.08;15.32;;;;;;;-1.88;62.75;99507.47;5044316;28;20033;-52
2023/12/03 00:32:06;;;;;;;27.30;13.68;;;;;;;-1.84;62.07;99503.00;5035789;28;20056;-52
2023/12/03 00:34:31;;;;;;;24.63;14.23;;;;;;;-1.90;62.42;99504.94;5034233;28;20032;-52
2023/12/03 00:36:57;;;;;;;28.02;14.75;;;;;;;-1.96;62.60;99509.53;5035191;28;20049;-52
2023/12/03 00:39:23;;;;;;;28.45;14.73;;;;;;;-1.96;62.60;99504.28;5035450;28;20052;-55
2023/12/03 00:41:48;;;;;;;29.00;14.15;;;;;;;-1.94;62.77;99503.28;5035057;28;20051;-53
2023/12/03 00:44:14;;;;;;;23.42;12.35;;;;;;;-1.97;62.47;99511.28;5037414;28;20030;-48
2023/12/03 00:46:39;;;;;;;20.40;12.00;;;;;;;-2.27;62.56;99485.16;5055039;28;20045;-52
2023/12/03 00:49:05;;;;;;;22.83;12.38;;;;;;;-2.03;62.58;99508.88;5048158;28;20057;-51
2023/12/03 00:51:31;;;;;;;22.65;13.38;;;;;;;-2.33;62.71;99454.75;5035186;28;20052;-49
2023/12/03 00:53:56;;;;;;;25.33;13.55;;;;;;;-2.07;62.39;99491.53;5033170;28;20047;-52
2023/12/03 00:56:22;;;;;;;24.65;13.75;;;;;;;-2.08;62.89;99501.13;5034885;28;20460;-55
2023/12/03 00:58:47;;;;;;;24.88;13.40;;;;;;;-2.16;62.54;99492.69;5035896;28;20121;-55
2023/12/03 01:01:13;;;;;;;25.95;13.38;;;;;;;-2.12;63.08;99493.44;5054345;28;20474;-56
2023/12/03 01:03:39;;;;;;;24.63;14.02;;;;;;;-2.13;62.80;99494.34;5054847;28;20036;-58
2023/12/03 01:06:04;;;;;;;28.30;15.00;;;;;;;-2.19;63.06;99487.53;5052788;28;20029;-57
2023/12/03 01:08:30;;;;;;;29.95;15.40;;;;;;;-2.20;63.50;99476.19;5037495;28;20041;-54
2023/12/03 01:10:56;;;;;;;30.58;15.32;;;;;;;-2.19;63.25;99491.00;5048675;28;20056;-55
2023/12/03 01:13:21;;;;;;;26.98;14.55;;;;;;;-2.21;62.53;99474.47;5052607;28;20033;-55
2023/12/03 01:15:48;;;;;;;28.25;14.77;;;;;;;-2.21;62.80;99505.94;5035725;28;20426;-49
2023/12/03 01:18:13;;;;;;;27.67;15.20;;;;;;;-2.34;63.56;99499.41;5017078;28;20037;-56
2023/12/03 01:20:39;;;;;;;27.85;14.27;;;;;;;-2.35;63.51;99508.19;5034692;28;20340;-50
2023/12/03 01:23:05;;;;;;;28.30;15.15;;;;;;;-2.38;64.41;99503.88;5033898;28;20456;-49
2023/12/03 01:25:31;;;;;;;28.63;14.25;;;;;;;-2.39;63.69;99514.44;5034282;28;20048;-52
2023/12/03 01:27:57;;;;;;;25.52;14.05;;;;;;;-2.40;63.88;99510.09;5035533;28;20064;-52
2023/12/03 01:30:23;;;;;;;25.35;12.88;;;;;;;-2.36;63.88;99511.72;5051164;28;20041;-51
2023/12/03 01:32:48;;;;;;;22.63;11.82;;;;;;;-2.25;62.90;99514.81;5054273;28;20079;-50
2023/12/03 01:35:16;;;;;;;22.75;12.25;;;;;;;-2.35;63.29;99524.75;5054454;28;20043;-53
2023/12/03 01:37:41;;;;;;;25.88;12.68;;;;;;;-2.40;63.72;99517.97;5053772;28;20361;-53
2023/12/03 01:40:08;;;;;;;22.00;11.32;;;;;;;-2.38;63.43;99524.00;5054034;28;20039;-54
2023/12/03 01:42:34;;;;;;;23.60;11.63;;;;;;;-2.40;63.34;99505.69;5052657;28;20413;-54
2023/12/03 01:44:59;;;;;;;23.17;11.25;;;;;;;-2.38;62.98;99513.53;5037625;28;20095;-51
2023/12/03 01:47:26;;;;;;;26.58;12.77;;;;;;;-2.41;63.05;99514.47;5034504;28;20351;-54
2023/12/03 01:49:52;;;;;;;27.55;13.07;;;;;;;-2.53;63.11;99504.38;5046554;28;20028;-56
2023/12/03 01:52:18;;;;;;;28.38;13.95;;;;;;;-2.51;63.97;99502.59;5037401;28;20037;-53
2023/12/03 01:54:44;;;;;;;32.15;14.80;;;;;;;-2.47;63.79;99499.78;5033940;28;20033;-54
2023/12/03 01:57:10;;;;;;;28.17;13.75;;;;;;;-2.47;63.36;99494.53;5033052;28;20453;-57
2023/12/03 01:59:36;;;;;;;26.35;14.20;;;;;;;-2.46;63.67;99492.78;5049889;28;20037;-52
2023/12/03 02:02:03;;;;;;;29.25;14.65;;;;;;;-2.38;63.03;99503.03;5041805;28;20056;-54
2023/12/03 02:04:29;;;;;;;31.58;15.00;;;;;;;-2.39;63.18;99498.69;5033596;28;20033;-57
2023/12/03 02:06:55;;;;;;;30.92;15.32;;;;;;;-2.35;63.21;99501.16;5033685;28;20041;-52
2023/12/03 02:09:20;;;;;;;31.20;14.65;;;;;;;-2.35;63.35;99495.06;5033807;28;20034;-55
2023/12/03 02:11:47;;;;;;;32.28;16.55;;;;;;;-2.26;62.88;99513.13;5033803;28;20341;-53
2023/12/03 02:14:14;;;;;;;35.38;17.33;;;;;;;-2.41;63.16;99495.25;5034260;28;20037;-54
2023/12/03 02:16:48;;;;;;;35.92;18.45;;;;;;;-2.33;63.57;99499.34;5033903;28;20076;-54
2023/12/03 02:19:17;;;;;;;35.08;18.80;;;;;;;-2.34;63.41;99508.13;5039474;28;20431;-58
2023/12/03 02:21:43;;;;;;;34.75;18.55;;;;;;;-2.38;63.38;99497.78;5053206;28;20104;-55
2023/12/03 02:24:09;;;;;;;35.58;18.13;;;;;;;-2.48;63.73;99497.22;5052974;28;20495;-55
2023/12/03 02:26:34;;;;;;;38.00;18.50;;;;;;;-2.91;63.78;99420.81;5053442;28;20121;-52
2023/12/03 02:29:00;;;;;;;34.55;18.35;;;;;;;-2.36;63.19;99494.19;5036888;28;20045;-56
2023/12/03 02:31:27;;;;;;;36.55;18.20;;;;;;;-2.36;63.91;99509.09;5032903;28;20041;-55
2023/12/03 02:34:11;;;;;;;38.53;18.75;;;;;;;-2.27;63.29;99495.66;5033047;28;20033;-56
2023/12/03 02:36:37;;;;;;;36.00;17.90;;;;;;;-2.27;63.07;99495.66;5032901;28;20029;-54
2023/12/03 02:39:03;;;;;;;37.17;19.17;;;;;;;-2.27;63.09;99510.56;5033054;28;20112;-57
2023/12/03 02:41:29;;;;;;;39.10;20.05;;;;;;;-2.32;63.53;99500.22;5033847;28;20104;-57
2023/12/03 02:43:55;;;;;;;32.50;15.13;;;;;;;-2.25;62.67;99501.72;5032763;28;20381;-54
2023/12/03 02:46:21;;;;;;;35.58;19.20;;;;;;;-2.37;62.74;99500.34;5033072;28;20116;-55
2023/12/03 02:48:46;;;;;;;39.40;18.50;;;;;;;-2.36;62.37;99506.47;5032643;28;20029;-58
2023/12/03 02:51:12;;;;;;;38.55;18.92;;;;;;;-2.48;62.77;99499.84;5033036;28;20804;-57
2023/12/03 02:53:38;;;;;;;35.95;19.35;;;;;;;-2.59;63.99;99500.19;5032882;28;20071;-52
2023/12/03 02:56:04;;;;;;;37.28;18.52;;;;;;;-2.56;64.11;99500.09;5037531;28;20095;-52
2023/12/03 02:58:30;;;;;;;39.28;19.65;;;;;;;-2.55;63.42;99501.81;5048993;28;20075;-55
2023/12/03 03:00:56;;;;;;;36.45;17.40;;;;;;;-2.58;64.15;99515.00;5031791;28;20037;-52
2023/12/03 03:03:21;;;;;;;40.97;18.67;;;;;;;-2.61;63.74;99515.97;5033811;28;20028;-57
2023/12/03 03:05:47;;;;;;;36.05;18.67;;;;;;;-2.67;63.66;99492.56;5051636;28;20056;-55
2023/12/03 03:08:13;;;;;;;41.30;19.45;;;;;;;-2.62;63.30;99505.53;5052396;28;20845;-59
2023/12/03 03:10:38;;;;;;;40.67;19.55;;;;;;;-2.68;63.39;99493.47;5047979;28;20032;-51
2023/12/03 03:13:04;;;;;;;33.40;15.90;;;;;;;-2.75;63.63;99494.59;5032258;28;20355;-49
2023/12/03 03:15:29;;;;;;;38.78;18.90;;;;;;;-2.88;63.82;99489.72;5032801;28;20052;-54
2023/12/03 03:17:55;;;;;;;38.08;17.95;;;;;;;-2.89;63.57;99497.63;5032894;28;20037;-54
2023/12/03 03:20:24;;;;;;;35.28;17.42;;;;;;;-2.91;63.82;99494.16;5049625;28;20036;-56
2023/12/03 03:22:50;;;;;;;41.30;19.30;;;;;;;-2.98;63.79;99487.41;5052738;28;20455;-55
2023/12/03 03:25:16;;;;;;;37.92;18.33;;;;;;;-2.85;63.79;99485.28;5049247;28;20093;-52
2023/12/03 03:27:42;;;;;;;39.78;18.58;;;;;;;-2.99;64.19;99478.72;5031872;28;20061;-55
2023/12/03 03:30:09;;;;;;;38.67;19.40;;;;;;;-3.04;64.22;99471.00;5031912;28;20037;-53
2023/12/03 03:32:35;;;;;;;33.78;17.20;;;;;;;-2.98;63.43;99450.75;5031847;28;20041;-55
2023/12/03 03:35:00;;;;;;;35.22;18.63;;;;;;;-3.03;63.33;99448.25;5032272;28;20042;-53
2023/12/03 03:37:26;;;;;;;31.75;14.93;;;;;;;-3.03;63.40;99449.13;5032076;28;20041;-54
2023/12/03 03:39:52;;;;;;;30.67;15.20;;;;;;;-3.07;63.68;99449.25;5033572;28;20037;-53
2023/12/03 03:42:17;;;;;;;35.65;17.35;;;;;;;-3.11;63.24;99450.25;5045347;28;20060;-51
2023/12/03 03:44:43;;;;;;;35.65;17.48;;;;;;;-3.23;64.25;99449.75;5033244;28;20036;-52
2023/12/03 03:47:11;;;;;;;37.80;16.88;;;;;;;-3.46;64.22;99408.53;5046027;28;20029;-53
2023/12/03 03:49:37;;;;;;;37.45;17.35;;;;;;;-3.36;64.16;99440.53;5031897;28;20410;-57
2023/12/03 03:52:03;;;;;;;37.40;18.58;;;;;;;-3.45;64.96;99446.88;5043252;28;20037;-53
2023/12/03 03:54:29;;;;;;;37.72;18.33;;;;;;;-3.46;64.73;99425.09;5050717;28;20029;-55
2023/12/03 03:56:54;;;;;;;35.15;16.70;;;;;;;-3.77;64.62;99362.34;5032701;28;20060;-53
2023/12/03 03:59:20;;;;;;;41.03;19.17;;;;;;;-3.30;63.71;99423.78;5031682;28;20030;-56
2023/12/03 04:01:46;;;;;;;42.72;19.85;;;;;;;-3.35;64.01;99434.38;5032233;28;20048;-52
2023/12/03 04:04:12;;;;;;;42.70;20.17;;;;;;;-3.46;63.92;99447.78;5032521;28;20047;-54
2023/12/03 04:06:44;;;;;;;39.97;19.92;;;;;;;-3.46;64.31;99466.97;5043001;28;20044;-50
2023/12/03 04:09:13;;;;;;;39.60;18.73;;;;;;;-3.49;63.54;99451.38;5048711;28;20021;-54
2023/12/03 04:11:42;;;;;;;40.38;19.98;;;;;;;-3.55;63.65;99467.22;5052215;28;20032;-56
2023/12/03 04:14:16;;;;;;;44.40;20.85;;;;;;;-3.67;64.06;99457.13;5052412;28;20021;-52
2023/12/03 04:16:42;;;;;;;40.17;20.55;;;;;;;-3.69;64.10;99451.06;5051678;28;20502;-55
2023/12/03 04:19:08;;;;;;;44.33;20.83;;;;;;;-3.68;63.64;99461.47;5051571;28;20036;-55
2023/12/03 04:21:36;;;;;;;38.72;18.25;;;;;;;-3.65;63.61;99471.03;5051335;28;20029;-53
2023/12/03 04:24:03;;;;;;;37.67;19.13;;;;;;;-3.72;64.22;99472.94;5040039;28;20045;-50
2023/12/03 04:26:29;;;;;;;40.45;19.20;;;;;;;-3.70;64.33;99471.13;5031550;28;20040;-54
2023/12/03 04:28:54;;;;;;;41.03;19.90;;;;;;;-3.72;64.13;99472.94;5042481;28;20044;-51
2023/12/03 04:31:22;;;;;;;42.67;21.33;;;;;;;-3.71;64.39;99472.03;5055469;28;20041;-55
2023/12/03 04:33:49;;;;;;;39.30;18.95;;;;;;;-3.69;64.05;99464.16;5055315;28;20941;-54
2023/12/03 04:36:15;;;;;;;42.55;21.52;;;;;;;-3.87;64.22;99434.13;5054984;28;20485;-54
2023/12/03 04:38:41;;;;;;;43.33;21.67;;;;;;;-3.66;64.34;99461.47;5044216;28;20100;-55
2023/12/03 04:41:07;;;;;;;39.40;19.80;;;;;;;-3.62;64.61;99461.34;5035240;28;20033;-51
2023/12/03 04:43:32;;;;;;;42.10;21.17;;;;;;;-3.50;63.86;99454.84;5035168;28;20360;-55
2023/12/03 04:46:03;;;;;;;44.67;21.70;;;;;;;-3.56;63.99;99460.28;5035236;28;20061;-49
2023/12/03 04:48:28;;;;;;;40.03;21.08;;;;;;;-3.59;64.11;99459.53;5037513;28;20181;-55
2023/12/03 04:50:54;;;;;;;43.53;21.52;;;;;;;-3.76;64.16;99427.69;5054978;28;20120;-53
2023/12/03 04:53:19;;;;;;;46.17;22.52;;;;;;;-3.69;64.20;99451.91;5044885;28;20098;-53
2023/12/03 04:55:45;;;;;;;39.47;20.38;;;;;;;-3.58;64.06;99449.00;5035112;28;20047;-54
2023/12/03 04:58:10;;;;;;;39.78;19.58;;;;;;;-3.59;64.15;99455.13;5034887;28;20124;-55
2023/12/03 05:00:36;;;;;;;41.30;20.05;;;;;;;-3.66;63.63;99443.13;5033792;28;20073;-56
2023/12/03 05:03:01;;;;;;;41.55;19.95;;;;;;;-3.69;64.60;99432.75;5035352;28;20126;-57
2023/12/03 05:05:27;;;;;;;37.35;20.15;;;;;;;-3.67;64.48;99449.28;5036217;28;20334;-56
2023/12/03 05:07:52;;;;;;;39.85;19.73;;;;;;;-3.54;64.03;99457.63;5042159;28;20035;-56
2023/12/03 05:10:18;;;;;;;38.65;19.58;;;;;;;-3.58;64.15;99462.09;5055023;28;20024;-52
2023/12/03 05:12:44;;;;;;;39.58;19.65;;;;;;;-3.54;63.83;99460.25;5054779;28;20086;-52
2023/12/03 05:15:10;;;;;;;41.33;20.90;;;;;;;-3.55;63.87;99458.53;5054430;28;20068;-52
2023/12/03 05:17:36;;;;;;;39.03;19.35;;;;;;;-3.52;64.14;99447.97;5054573;28;20025;-52
2023/12/03 05:20:02;;;;;;;43.65;21.20;;;;;;;-3.54;63.68;99460.25;5054070;28;20051;-55
2023/12/03 05:22:28;;;;;;;44.58;21.17;;;;;;;-3.50;64.25;99459.25;5046605;28;20491;-53
2023/12/03 05:24:54;;;;;;;42.45;20.55;;;;;;;-3.51;64.43;99460.16;5034402;28;20045;-52
2023/12/03 05:27:20;;;;;;;40.53;20.23;;;;;;;-3.47;64.12;99448.69;5037582;28;20029;-57
2023/12/03 05:29:46;;;;;;;38.45;18.65;;;;;;;-3.47;64.01;99433.88;5053702;28;20048;-56
2023/12/03 05:32:11;;;;;;;37.30;19.90;;;;;;;-3.44;63.91;99448.59;5054096;28;20044;-55
2023/12/03 05:34:37;;;;;;;36.13;18.05;;;;;;;-3.37;63.56;99465.00;5053089;28;20032;-56
2023/12/03 05:37:03;;;;;;;37.55;18.35;;;;;;;-3.34;63.55;99444.81;5049573;28;20037;-57
2023/12/03 05:39:30;;;;;;;36.83;17.83;;;;;;;-3.43;63.87;99457.31;5054016;28;20037;-55
2023/12/03 05:41:55;;;;;;;34.63;17.98;;;;;;;-3.62;63.98;99414.22;5054181;28;20075;-51
2023/12/03 05:44:21;;;;;;;36.58;16.95;;;;;;;-3.47;63.11;99431.25;5037017;28;20057;-54
2023/12/03 05:46:46;;;;;;;33.60;17.55;;;;;;;-3.66;63.74;99412.59;5049086;28;20041;-55
2023/12/03 05:49:12;;;;;;;33.53;16.58;;;;;;;-3.54;63.27;99442.78;5043589;28;20113;-53
2023/12/03 05:51:43;;;;;;;37.58;17.50;;;;;;;-3.51;63.49;99437.44;5040427;28;20091;-56
2023/12/03 05:54:09;;;;;;;30.55;15.85;;;;;;;-3.58;63.50;99427.22;5042220;28;20364;-56
2023/12/03 05:56:34;;;;;;;32.45;17.05;;;;;;;-3.64;63.95;99439.56;5042929;28;20033;-51
2023/12/03 05:59:00;;;;;;;34.80;17.40;;;;;;;-3.70;63.80;99439.75;5044922;28;20043;-57
2023/12/03 06:01:25;;;;;;;37.33;17.55;;;;;;;-3.66;63.31;99449.22;5042645;28;20026;-51
2023/12/03 06:03:51;;;;;;;33.05;17.35;;;;;;;-3.67;63.80;99426.56;5042825;28;20029;-51
2023/12/03 06:06:18;;;;;;;35.05;17.35;;;;;;;-3.93;63.57;99394.16;5043437;28;20033;-49
2023/12/03 06:08:44;;;;;;;31.58;17.30;;;;;;;-3.62;64.12;99442.16;5044480;28;20029;-55
2023/12/03 06:11:10;;;;;;;35.47;17.58;;;;;;;-3.58;63.57;99435.06;5043037;28;20040;-55
2023/12/03 06:13:35;;;;;;;30.58;16.02;;;;;;;-3.54;62.92;99427.06;5042215;28;20029;-51
2023/12/03 06:16:01;;;;;;;30.98;17.20;;;;;;;-3.53;63.53;99420.09;5044586;28;20033;-55
2023/12/03 06:18:27;;;;;;;37.92;17.13;;;;;;;-3.40;63.33;99429.28;5042637;28;20037;-57
2023/12/03 06:20:52;;;;;;;41.65;19.10;;;;;;;-3.46;62.73;99413.75;5042072;28;20057;-53
2023/12/03 06:23:18;;;;;;;34.97;17.13;;;;;;;-3.42;62.48;99415.38;5043721;28;20045;-55
2023/12/03 06:25:44;;;;;;;34.75;16.95;;;;;;;-3.44;61.52;99408.50;5041554;28;20053;-53
2023/12/03 06:28:10;;;;;;;39.53;16.80;;;;;;;-3.45;61.44;99386.69;5041429;28;20419;-56
2023/12/03 06:30:36;;;;;;;31.17;17.30;;;;;;;-3.70;61.95;99376.09;5043345;28;20038;-54
2023/12/03 06:33:02;;;;;;;33.33;17.90;;;;;;;-3.71;62.33;99385.69;5041723;28;20049;-59
2023/12/03 06:35:27;;;;;;;37.92;18.90;;;;;;;-3.65;62.10;99382.91;5038809;28;20053;-62
2023/12/03 06:37:53;;;;;;;39.72;18.63;;;;;;;-3.71;61.96;99377.84;5042606;28;20860;-61
2023/12/03 06:40:19;;;;;;;35.97;18.08;;;;;;;-3.72;62.04;99349.97;5043650;28;20033;-58
2023/12/03 06:42:45;;;;;;;41.30;19.80;;;;;;;-3.68;61.38;99355.97;5043728;28;20021;-59
2023/12/03 06:45:13;;;;;;;40.55;17.10;;;;;;;-3.57;60.81;99347.81;5042407;28;20073;-58
2023/12/03 06:47:39;;;;;;;34.28;15.77;;;;;;;-3.60;60.77;99364.44;5041500;28;20052;-58
2023/12/03 06:50:05;;;;;;;42.25;20.05;;;;;;;-3.76;60.66;99350.97;5043411;28;20025;-53
2023/12/03 06:52:31;;;;;;;39.33;17.83;;;;;;;-3.79;61.40;99348.44;5043539;28;20482;-60
2023/12/03 06:54:57;;;;;;;44.20;20.10;;;;;;;-3.85;61.14;99340.78;5041539;28;20049;-56
2023/12/03 06:57:22;;;;;;;45.90;19.85;;;;;;;-3.74;60.85;99341.31;5041560;28;20428;-58
2023/12/03 06:59:48;;;;;;;38.65;19.05;;;;;;;-3.89;61.16;99350.47;5044211;28;20033;-56
2023/12/03 07:02:13;;;;;;;39.63;17.27;;;;;;;-3.78;61.32;99344.94;5052412;28;20067;-57
2023/12/03 07:04:39;;;;;;;42.78;19.63;;;;;;;-3.75;60.76;99347.44;5048224;28;20029;-58
2023/12/03 07:07:05;;;;;;;41.30;18.15;;;;;;;-3.77;61.17;99346.66;5053123;28;20033;-55
2023/12/03 07:09:31;;;;;;;41.10;21.88;;;;;;;-3.90;61.09;99331.28;5052780;28;20087;-62
2023/12/03 07:11:57;;;;;;;41.72;20.75;;;;;;;-3.75;60.64;99355.31;5040940;28;20087;-58
2023/12/03 07:14:22;;;;;;;46.70;22.48;;;;;;;-3.79;61.24;99369.38;5032772;28;20041;-59
2023/12/03 07:16:48;;;;;;;44.30;21.92;;;;;;;-3.88;60.94;99365.25;5032394;28;20094;-58
2023/12/03 07:19:14;;;;;;;43.60;21.15;;;;;;;-3.83;60.73;99391.31;5043574;28;20025;-60
2023/12/03 07:21:39;;;;;;;46.20;21.77;;;;;;;-3.84;61.37;99403.50;5052608;28;20035;-59
2023/12/03 07:24:07;;;;;;;44.53;22.23;;;;;;;-3.86;61.21;99393.97;5052933;28;20348;-61
2023/12/03 07:26:33;;;;;;;41.85;20.17;;;;;;;-3.81;61.06;99405.19;5052629;28;20033;-65
2023/12/03 07:28:59;;;;;;;56.67;22.73;;;;;;;-3.80;60.67;99401.66;5041182;28;20133;-56
2023/12/03 07:31:25;;;;;;;41.35;19.58;;;;;;;-3.83;60.57;99412.22;5052195;28;20129;-61
2023/12/03 07:33:51;;;;;;;42.83;18.88;;;;;;;-3.83;60.96;99423.53;5041618;28;20064;-58
2023/12/03 07:36:17;;;;;;;35.63;14.88;;;;;;;-3.83;60.03;99430.53;5032324;28;20060;-60
2023/12/03 07:38:42;;;;;;;43.72;19.08;;;;;;;-4.07;61.20;99425.91;5032192;28;20040;-61
2023/12/03 07:41:11;;;;;;;48.22;23.23;;;;;;;-4.36;61.93;99418.84;5032187;28;20411;-57
2023/12/03 07:43:37;;;;;;;52.80;23.00;;;;;;;-4.41;62.29;99432.06;5031924;28;20296;-61
2023/12/03 07:46:03;;;;;;;46.75;23.58;;;;;;;-4.45;62.95;99426.94;5043875;28;20111;-61
2023/12/03 07:48:28;;;;;;;51.85;23.10;;;;;;;-4.42;62.78;99419.88;5042222;28;20438;-57
2023/12/03 07:50:54;;;;;;;49.05;20.60;;;;;;;-4.45;62.94;99408.63;5032134;28;20360;-53
2023/12/03 07:53:20;;;;;;;41.22;20.27;;;;;;;-4.37;62.72;99404.94;5031987;28;20083;-57
2023/12/03 07:55:45;;;;;;;49.65;23.65;;;;;;;-4.53;63.45;99414.94;5039324;28;20045;-55
2023/12/03 07:58:11;;;;;;;50.58;23.77;;;;;;;-4.69;64.01;99372.66;5051309;28;20021;-59
2023/12/03 08:00:38;;;;;;;48.40;23.15;;;;;;;-4.39;64.07;99403.25;5051950;28;20404;-58
2023/12/03 08:03:04;;;;;;;46.05;22.50;;;;;;;-4.38;63.67;99402.34;5043549;28;20033;-58
2023/12/03 08:05:30;;;;;;;53.80;23.60;;;;;;;-4.30;63.88;99400.41;5035703;28;20038;-57
2023/12/03 08:07:56;;;;;;;43.92;20.95;;;;;;;-4.22;63.13;99406.28;5035551;28;20029;-60
2023/12/03 08:10:21;;;;;;;34.63;13.55;;;;;;;-4.06;62.50;99391.03;5035526;28;20288;-59
2023/12/03 08:12:47;;;;;;;47.60;22.02;;;;;;;-4.11;62.66;99381.59;5036291;28;20037;-58
2023/12/03 08:15:13;;;;;;;47.85;22.73;;;;;;;-4.37;63.48;99364.84;5035950;28;20043;-53
2023/12/03 08:17:38;;;;;;;41.22;16.65;;;;;;;-4.27;63.13;99357.63;5042293;28;20033;-56
2023/12/03 08:20:05;;;;;;;47.78;22.85;;;;;;;-4.35;63.02;99340.41;5056005;28;20025;-56
2023/12/03 08:22:32;;;;;;;48.13;22.70;;;;;;;-4.44;63.99;99313.66;5055573;28;20045;-53
2023/12/03 08:24:59;;;;;;;50.78;22.17;;;;;;;-4.37;64.50;99302.13;5055618;28;20032;-58
2023/12/03 08:27:25;;;;;;;43.25;21.02;;;;;;;-4.26;63.43;99305.31;5055201;28;20444;-56
2023/12/03 08:29:52;;;;;;;45.53;21.98;;;;;;;-4.31;64.43;99309.81;5055393;28;20071;-56
2023/12/03 08:32:19;;;;;;;44.28;20.73;;;;;;;-4.31;63.78;99309.81;5053619;28;20133;-59
2023/12/03 08:34:45;;;;;;;42.95;20.73;;;;;;;-4.36;64.31;99314.31;5054559;28;20062;-56
2023/12/03 08:37:11;;;;;;;46.53;22.17;;;;;;;-4.47;65.32;99315.47;5051213;28;20456;-54
2023/12/03 08:39:36;;;;;;;44.15;21.25;;;;;;;-4.39;65.06;99301.31;5035970;28;20388;-55
2023/12/03 08:42:04;;;;;;;45.75;19.48;;;;;;;-4.30;64.70;99284.53;5035116;28;20037;-55
2023/12/03 08:44:33;;;;;;;44.35;21.33;;;;;;;-4.46;65.83;99274.53;5035644;28;20033;-59
2023/12/03 08:46:59;;;;;;;44.03;21.52;;;;;;;-4.69;65.91;99235.97;5053216;28;20119;-59
2023/12/03 08:49:26;;;;;;;40.42;20.95;;;;;;;-4.37;65.72;99279.47;5039012;28;20112;-60
2023/12/03 08:51:52;;;;;;;44.35;19.65;;;;;;;-4.20;65.68;99267.69;5035477;28;20060;-59
2023/12/03 08:54:17;;;;;;;39.28;19.60;;;;;;;-4.21;65.51;99258.16;5035334;28;20029;-59
2023/12/03 08:56:43;;;;;;;43.92;22.15;;;;;;;-4.17;66.19;99251.91;5035220;28;20364;-55
2023/12/03 08:59:09;;;;;;;48.80;22.45;;;;;;;-4.02;65.13;99237.53;5035076;28;20068;-59
2023/12/03 09:01:38;;;;;;;48.45;22.20;;;;;;;-4.01;65.51;99227.91;5048581;28;20037;-60
2023/12/03 09:04:03;;;;;;;43.78;18.88;;;;;;;-3.82;64.78;99218.59;5055082;28;20032;-57
2023/12/03 09:06:29;;;;;;;33.20;14.82;;;;;;;-3.79;64.43;99199.34;5054969;28;20029;-58
2023/12/03 09:08:55;;;;;;;46.28;22.15;;;;;;;-4.00;64.67;99198.25;5054964;28;20039;-59
2023/12/03 09:11:22;;;;;;;39.22;20.08;;;;;;;-4.20;65.45;99182.28;5052888;28;20025;-58
2023/12/03 09:13:47;;;;;;;40.10;19.85;;;;;;;-4.30;65.29;99118.13;5036133;28;20112;-56
2023/12/03 09:16:13;;;;;;;41.45;19.67;;;;;;;-4.08;65.36;99169.75;5046510;28;20108;-55
2023/12/03 09:18:38;;;;;;;40.00;19.83;;;;;;;-4.07;65.13;99147.91;5055037;28;20466;-55
2023/12/03 09:21:06;;;;;;;37.05;18.45;;;;;;;-4.14;65.92;99154.22;5054107;28;20025;-56
2023/12/03 09:23:33;;;;;;;27.25;13.25;;;;;;;-4.01;65.14;99146.84;5053730;28;20056;-55
2023/12/03 09:26:00;;;;;;;37.78;18.65;;;;;;;-4.18;65.08;99141.25;5054020;28;20029;-56
2023/12/03 09:28:26;;;;;;;37.38;17.70;;;;;;;-4.32;66.10;99148.69;5054229;28;20063;-58
2023/12/03 09:30:51;;;;;;;35.10;17.17;;;;;;;-4.09;65.28;99162.81;5040671;28;20357;-58
2023/12/03 09:33:17;;;;;;;34.83;17.50;;;;;;;-4.15;65.57;99124.63;5033229;28;20041;-56
2023/12/03 09:35:43;;;;;;;39.05;18.15;;;;;;;-4.28;66.08;99121.53;5034281;28;20025;-60
2023/12/03 09:38:08;;;;;;;37.70;19.02;;;;;;;-4.37;66.65;99124.41;5038749;28;20119;-60
2023/12/03 09:40:34;;;;;;;34.47;17.05;;;;;;;-4.25;66.20;99121.44;5054570;28;20036;-59
2023/12/03 09:43:04;;;;;;;38.45;18.27;;;;;;;-4.10;66.24;99127.94;5053951;28;20308;-59
2023/12/03 09:45:31;;;;;;;38.38;18.42;;;;;;;-4.06;66.01;99126.09;5041552;28;20040;-59
2023/12/03 09:48:00;;;;;;;40.00;18.98;;;;;;;-3.92;65.90;99112.56;5034486;28;20037;-60
2023/12/03 09:50:27;;;;;;;40.65;19.92;;;;;;;-4.03;66.00;99115.53;5034503;28;20040;-59
2023/12/03 09:52:54;;;;;;;38.70;19.60;;;;;;;-3.95;66.09;99107.44;5033676;28;20475;-61
2023/12/03 09:55:21;;;;;;;32.80;16.45;;;;;;;-4.05;66.04;99094.66;5033773;28;20033;-59
2023/12/03 09:57:48;;;;;;;32.60;15.60;;;;;;;-3.96;66.08;99090.88;5034882;28;20017;-59
2023/12/03 10:00:15;;;;;;;37.03;16.02;;;;;;;-3.93;65.42;99087.31;5052433;28;20033;-57
2023/12/03 10:02:41;;;;;;;32.42;15.70;;;;;;;-4.12;65.75;99084.44;5037356;28;20096;-59
2023/12/03 10:05:07;;;;;;;39.00;18.20;;;;;;;-4.30;67.19;99081.53;5033564;28;20033;-55
2023/12/03 10:07:33;;;;;;;25.13;12.18;;;;;;;-3.91;65.65;99083.75;5033960;28;20037;-58
2023/12/03 10:10:00;;;;;;;34.65;16.20;;;;;;;-4.07;65.77;99077.31;5033685;28;20021;-57
2023/12/03 10:12:41;;;;;;;30.90;14.23;;;;;;;-4.11;66.06;99075.69;5034081;28;20025;-57
2023/12/03 10:15:11;;;;;;;31.15;15.55;;;;;;;-4.26;66.44;99048.28;5033156;28;20167;-59
2023/12/03 10:17:39;;;;;;;29.52;13.68;;;;;;;-4.15;66.47;99068.84;5034123;28;20030;-60
2023/12/03 10:20:26;;;;;;;27.40;14.07;;;;;;;-3.97;66.22;99070.88;5050422;28;20531;-58
2023/12/03 10:22:56;;;;;;;29.35;13.75;;;;;;;-4.16;66.55;99081.09;5052895;28;20033;-59
2023/12/03 10:25:42;;;;;;;29.30;14.30;;;;;;;-4.08;66.80;99073.84;5053211;28;20098;-60
2023/12/03 10:28:09;;;;;;;23.45;10.48;;;;;;;-3.83;66.27;99069.56;5044911;28;20571;-59
2023/12/03 10:30:36;;;;;;;32.65;15.40;;;;;;;-4.03;66.20;99060.63;5032808;28;20342;-61
2023/12/03 10:33:04;;;;;;;29.30;14.27;;;;;;;-4.13;66.35;99056.59;5032994;28;20478;-54
2023/12/03 10:35:34;;;;;;;30.20;13.65;;;;;;;-4.10;67.04;99057.34;5039690;28;20094;-59
2023/12/03 10:38:00;;;;;;;29.50;13.82;;;;;;;-3.97;66.10;99060.41;5052536;28;20071;-58
2023/12/03 10:40:26;;;;;;;28.02;13.98;;;;;;;-4.06;66.79;99052.88;5049185;28;20051;-58
2023/12/03 10:42:52;;;;;;;29.00;14.05;;;;;;;-4.07;66.95;99043.34;5036097;28;20417;-59
2023/12/03 10:45:18;;;;;;;20.88;9.98;;;;;;;-3.92;66.38;99042.81;5052559;28;20510;-54
2023/12/03 10:47:44;;;;;;;24.73;11.35;;;;;;;-3.74;64.95;99032.63;5052894;28;20029;-60
2023/12/03 10:50:11;;;;;;;25.00;11.63;;;;;;;-3.84;65.03;99026.84;5052849;28;20025;-60
2023/12/03 10:52:38;;;;;;;26.02;12.60;;;;;;;-4.06;65.31;99031.97;5052286;28;20036;-58
2023/12/03 10:55:06;;;;;;;28.00;13.15;;;;;;;-4.12;65.67;99019.06;5052118;28;20024;-59
2023/12/03 10:57:34;;;;;;;30.35;11.10;;;;;;;-4.10;65.37;99009.41;5036646;28;20112;-60
2023/12/03 11:00:12;;;;;;;16.27;8.27;;;;;;;-3.87;64.70;99005.16;5032951;28;20099;-59
2023/12/03 11:03:03;;;;;;;29.00;12.48;;;;;;;-4.19;65.40;98938.25;5049831;28;20111;-61
2023/12/03 11:05:38;;;;;;;25.20;10.30;;;;;;;-4.08;65.24;98984.09;5052808;28;20104;-60
2023/12/03 11:08:04;;;;;;;24.73;9.77;;;;;;;-4.13;65.45;98980.78;5052226;28;20064;-61
2023/12/03 11:10:30;;;;;;;23.42;10.30;;;;;;;-4.03;65.04;98977.78;5049406;28;20086;-57
2023/12/03 11:12:57;;;;;;;19.15;8.30;;;;;;;-4.07;65.82;98978.81;5034666;28;20034;-55